Time;durP1;ratioP1;P1;durP2;ratioP2;P2;SDS_P1;SDS_P2;PMS_P1;PMS_P2;Temp;Humidity;BMP_temperature;BMP_pressure;BME280_temperature;BME280_humidity;BME280_pressure;Samples;Min_cycle;Max_cycle;Signal;HPM_P1;HPM_P2
2022/09/04 00:02:41;;;;;;;10.00;5.05;;;;;;;;;;5035844;28;20025;-63
2022/09/04 00:05:21;;;;;;;5.18;4.10;;;;;;;;;;5035784;28;20025;-62
2022/09/04 00:07:55;;;;;;;4.78;3.70;;;;;;;;;;5035756;28;20041;-62
2022/09/04 00:10:29;;;;;;;3.72;3.40;;;;;;;;;;5035423;28;20060;-63
2022/09/04 00:12:59;;;;;;;4.30;3.67;;;;;;;;;;5035664;28;20043;-63
2022/09/04 00:15:30;;;;;;;12.38;5.15;;;;;;;;;;5035342;28;20068;-62
2022/09/04 00:17:58;;;;;;;12.93;5.70;;;;;;;;;;5035548;28;20409;-63
2022/09/04 00:20:37;;;;;;;11.60;5.00;;;;;;;;;;5033762;28;20032;-62
2022/09/04 00:23:09;;;;;;;7.53;4.93;;;;;;;;;;5035765;28;20108;-62
2022/09/04 00:25:49;;;;;;;12.38;5.30;;;;;;;;;;5035664;28;20179;-62
2022/09/04 00:28:27;;;;;;;3.33;3.03;;;;;;;;;;5035347;28;20045;-63
2022/09/04 00:31:00;;;;;;;3.50;3.20;;;;;;;;;;5035074;28;20037;-62
2022/09/04 00:33:34;;;;;;;4.28;3.47;;;;;;;;;;5035246;28;20484;-62
2022/09/04 00:36:02;;;;;;;4.53;4.00;;;;;;;;;;5035487;28;20037;-62
2022/09/04 00:38:52;;;;;;;5.20;4.15;;;;;;;;;;5035419;28;20125;-63
2022/09/04 00:41:39;;;;;;;5.10;3.92;;;;;;;;;;5035083;28;20041;-63
2022/09/04 00:44:23;;;;;;;16.60;6.95;;;;;;;;;;5035339;28;20061;-63
2022/09/04 00:46:52;;;;;;;9.75;4.75;;;;;;;;;;5034566;28;20040;-63
2022/09/04 00:49:24;;;;;;;4.10;3.60;;;;;;;;;;5035182;28;20041;-63
2022/09/04 00:51:59;;;;;;;4.45;4.05;;;;;;;;;;5034878;28;20080;-62
2022/09/04 00:54:36;;;;;;;3.50;3.30;;;;;;;;;;5034849;28;20033;-63
2022/09/04 00:57:12;;;;;;;4.00;3.70;;;;;;;;;;5033961;28;20043;-63
2022/09/04 00:59:56;;;;;;;5.82;4.43;;;;;;;;;;5034669;28;20067;-63
2022/09/04 01:02:41;;;;;;;4.82;3.92;;;;;;;;;;5034487;28;20025;-62
2022/09/04 01:05:06;;;;;;;4.38;4.07;;;;;;;;;;5034689;28;20080;-63
2022/09/04 01:07:52;;;;;;;4.35;3.95;;;;;;;;;;5034673;28;20021;-62
2022/09/04 01:10:32;;;;;;;4.40;4.10;;;;;;;;;;5034271;28;20033;-62
2022/09/04 01:13:18;;;;;;;7.97;5.20;;;;;;;;;;5034539;28;20124;-62
2022/09/04 01:15:56;;;;;;;5.35;3.85;;;;;;;;;;5033710;28;20485;-62
2022/09/04 01:18:40;;;;;;;4.45;4.05;;;;;;;;;;5034473;28;20029;-62
2022/09/04 01:21:30;;;;;;;5.78;4.78;;;;;;;;;;5034346;28;20064;-63
2022/09/04 01:24:06;;;;;;;3.92;3.55;;;;;;;;;;5034069;28;20037;-63
2022/09/04 01:26:38;;;;;;;4.60;4.20;;;;;;;;;;5034272;28;20468;-62
2022/09/04 01:29:14;;;;;;;50.65;18.13;;;;;;;;;;5034017;28;20493;-62
2022/09/04 01:31:47;;;;;;;110.82;30.40;;;;;;;;;;5034237;28;20053;-62
2022/09/04 01:36:56;;;;;;;50.97;14.23;;;;;;;;;;5065291;22;20053;-62
2022/09/04 01:39:23;;;;;;;41.88;12.70;;;;;;;;;;5035770;28;20029;-62
2022/09/04 01:41:51;;;;;;;26.27;11.13;;;;;;;;;;5053968;28;20067;-62
2022/09/04 01:44:17;;;;;;;14.70;6.60;;;;;;;;;;5053937;28;20033;-62
2022/09/04 01:46:57;;;;;;;39.95;12.82;;;;;;;;;;5053629;28;20029;-62
2022/09/04 01:49:22;;;;;;;30.30;11.88;;;;;;;;;;5054200;28;20056;-62
2022/09/04 01:51:57;;;;;;;59.17;18.98;;;;;;;;;;5035830;28;20059;-63
2022/09/04 01:54:27;;;;;;;12.80;6.28;;;;;;;;;;5053802;28;20060;-62
2022/09/04 01:56:52;;;;;;;;;;;;;;;;;;5054483;28;20025;-62
2022/09/04 01:59:18;;;;;;;4.78;4.38;;;;;;;;;;5053684;28;20406;-62
2022/09/04 02:01:51;;;;;;;7.72;4.70;;;;;;;;;;5053442;28;20495;-63
2022/09/04 02:04:37;;;;;;;43.00;11.98;;;;;;;;;;5053691;28;20029;-62
2022/09/04 02:07:11;;;;;;;21.38;7.32;;;;;;;;;;5052775;28;20095;-62
2022/09/04 02:09:56;;;;;;;33.58;10.70;;;;;;;;;;5053657;28;20465;-63
2022/09/04 02:12:21;;;;;;;13.35;5.88;;;;;;;;;;5035570;28;20033;-63
2022/09/04 02:14:54;;;;;;;6.25;4.68;;;;;;;;;;5053361;28;20051;-63
2022/09/04 02:17:31;;;;;;;26.30;8.30;;;;;;;;;;5053267;28;20116;-63
2022/09/04 02:19:57;;;;;;;6.00;4.80;;;;;;;;;;5053473;28;20493;-62
2022/09/04 02:22:42;;;;;;;5.72;4.47;;;;;;;;;;5053547;28;20053;-62
2022/09/04 02:25:08;;;;;;;6.35;4.68;;;;;;;;;;5053263;28;20035;-63
2022/09/04 02:27:45;;;;;;;5.03;4.43;;;;;;;;;;5053507;28;20021;-62
2022/09/04 02:30:12;;;;;;;5.25;4.80;;;;;;;;;;5053446;28;20029;-63
2022/09/04 02:32:40;;;;;;;6.55;5.50;;;;;;;;;;5053153;28;20044;-62
2022/09/04 02:35:29;;;;;;;5.32;4.53;;;;;;;;;;5053418;28;20440;-63
2022/09/04 02:38:13;;;;;;;6.28;5.63;;;;;;;;;;5024813;28;20435;-63
2022/09/04 02:40:58;;;;;;;5.30;4.63;;;;;;;;;;5053587;28;20469;-62
2022/09/04 02:43:31;;;;;;;4.35;4.03;;;;;;;;;;5053322;28;20483;-62
2022/09/04 02:46:15;;;;;;;5.40;4.90;;;;;;;;;;5057529;28;20123;-66
2022/09/04 02:48:59;;;;;;;20.67;9.60;;;;;;;;;;5057507;28;20032;-66
2022/09/04 02:51:43;;;;;;;11.15;6.25;;;;;;;;;;5056852;28;20017;-66
2022/09/04 02:54:31;;;;;;;4.55;4.25;;;;;;;;;;5057343;28;20065;-67
2022/09/04 02:56:57;;;;;;;4.60;4.22;;;;;;;;;;5057106;28;20029;-66
2022/09/04 02:59:36;;;;;;;5.40;5.00;;;;;;;;;;5056646;28;20423;-66
2022/09/04 03:02:03;;;;;;;6.85;6.22;;;;;;;;;;5056680;28;20033;-66
2022/09/04 03:04:48;;;;;;;5.53;5.03;;;;;;;;;;5056927;28;20017;-66
2022/09/04 03:07:26;;;;;;;4.60;4.28;;;;;;;;;;5056825;28;20464;-66
2022/09/04 03:09:54;;;;;;;5.32;4.93;;;;;;;;;;5056518;28;20029;-66
2022/09/04 03:12:32;;;;;;;5.05;4.65;;;;;;;;;;5057033;28;20017;-66
2022/09/04 03:15:16;;;;;;;5.18;4.68;;;;;;;;;;5057017;28;20076;-66
2022/09/04 03:17:48;;;;;;;5.07;4.68;;;;;;;;;;5056389;28;20033;-66
2022/09/04 03:20:20;;;;;;;5.65;5.15;;;;;;;;;;5056556;28;20041;-66
2022/09/04 03:22:45;;;;;;;5.60;5.20;;;;;;;;;;5038758;28;20021;-66
2022/09/04 03:25:11;;;;;;;5.07;4.75;;;;;;;;;;5056505;28;20021;-66
2022/09/04 03:27:36;;;;;;;5.18;4.78;;;;;;;;;;5056474;28;20086;-66
2022/09/04 03:30:02;;;;;;;5.63;5.07;;;;;;;;;;5056650;28;20075;-66
2022/09/04 03:32:46;;;;;;;5.53;5.03;;;;;;;;;;5056639;28;20037;-66
2022/09/04 03:35:15;;;;;;;5.85;5.25;;;;;;;;;;5056128;28;20456;-66
2022/09/04 03:37:59;;;;;;;5.17;4.77;;;;;;;;;;5038123;28;20041;-66
2022/09/04 03:40:31;;;;;;;5.80;5.40;;;;;;;;;;5056143;28;20387;-66
2022/09/04 03:43:24;;;;;;;5.90;5.43;;;;;;;;;;5056204;28;20029;-66
2022/09/04 03:46:03;;;;;;;6.55;6.05;;;;;;;;;;5097840;22;20110;-66
2022/09/04 03:48:29;;;;;;;5.35;4.85;;;;;;;;;;5077391;28;20046;-67
2022/09/04 03:50:57;;;;;;;5.72;5.15;;;;;;;;;;5075717;28;20047;-66
2022/09/04 03:53:37;;;;;;;5.63;5.13;;;;;;;;;;5075735;28;20028;-67
2022/09/04 03:56:11;;;;;;;6.00;5.50;;;;;;;;;;5075655;28;20033;-66
2022/09/04 03:58:39;;;;;;;6.30;5.57;;;;;;;;;;5075880;28;20028;-66
2022/09/04 04:01:04;;;;;;;7.07;6.00;;;;;;;;;;5075792;28;20021;-66
2022/09/04 04:03:48;;;;;;;5.75;5.25;;;;;;;;;;5075447;28;20020;-66
2022/09/04 04:06:17;;;;;;;5.57;5.07;;;;;;;;;;5074197;28;20439;-66
2022/09/04 04:09:10;;;;;;;6.03;5.53;;;;;;;;;;5075385;28;20021;-66
2022/09/04 04:11:35;;;;;;;6.88;6.00;;;;;;;;;;5075963;28;20043;-66
2022/09/04 04:14:16;;;;;;;6.00;5.50;;;;;;;;;;5057468;28;20377;-66
2022/09/04 04:16:41;;;;;;;6.57;5.97;;;;;;;;;;5076126;28;20427;-66
2022/09/04 04:19:19;;;;;;;7.25;6.55;;;;;;;;;;5079786;22;20056;-66
2022/09/04 04:22:10;;;;;;;9.73;6.93;;;;;;;;;;5055450;28;20037;-67
2022/09/04 04:24:53;;;;;;;7.03;6.32;;;;;;;;;;5037937;28;20041;-66
2022/09/04 04:27:32;;;;;;;6.10;5.65;;;;;;;;;;5055327;28;20477;-66
2022/09/04 04:30:01;;;;;;;6.53;5.95;;;;;;;;;;5055061;28;20032;-66
2022/09/04 04:32:35;;;;;;;6.63;6.03;;;;;;;;;;5020600;28;20033;-66
2022/09/04 04:35:01;;;;;;;6.85;6.25;;;;;;;;;;5055209;28;20029;-66
2022/09/04 04:37:36;;;;;;;7.45;6.72;;;;;;;;;;5055088;28;20028;-66
2022/09/04 04:40:20;;;;;;;6.15;5.63;;;;;;;;;;5055059;28;20051;-67
2022/09/04 04:43:03;;;;;;;6.45;5.93;;;;;;;;;;5055347;28;20032;-66
2022/09/04 04:45:50;;;;;;;5.82;5.40;;;;;;;;;;5055030;28;20029;-66
2022/09/04 04:48:15;;;;;;;5.82;5.35;;;;;;;;;;5069252;22;20064;-66
2022/09/04 04:50:59;;;;;;;6.63;6.05;;;;;;;;;;5037436;28;20029;-66
2022/09/04 04:53:43;;;;;;;6.10;5.38;;;;;;;;;;5055089;28;20055;-66
2022/09/04 04:56:18;;;;;;;6.05;5.55;;;;;;;;;;5054773;28;20032;-66
2022/09/04 04:58:46;;;;;;;6.22;5.57;;;;;;;;;;5053232;28;20037;-66
2022/09/04 05:01:21;;;;;;;6.03;5.40;;;;;;;;;;5054647;28;20380;-66
2022/09/04 05:03:53;;;;;;;6.45;5.95;;;;;;;;;;5054420;28;20029;-66
2022/09/04 05:06:19;;;;;;;5.35;4.95;;;;;;;;;;5053764;28;20025;-66
2022/09/04 05:08:50;;;;;;;5.65;5.25;;;;;;;;;;5054255;28;20377;-66
2022/09/04 05:11:28;;;;;;;5.65;5.25;;;;;;;;;;5054485;28;20052;-66
2022/09/04 05:13:54;;;;;;;6.18;5.57;;;;;;;;;;5054479;28;20037;-66
2022/09/04 05:16:22;;;;;;;5.72;5.30;;;;;;;;;;5054694;28;20031;-66
2022/09/04 05:18:48;;;;;;;6.03;5.60;;;;;;;;;;5069983;22;20089;-66
2022/09/04 05:21:22;;;;;;;6.22;5.63;;;;;;;;;;5074491;28;20037;-66
2022/09/04 05:24:01;;;;;;;5.97;5.47;;;;;;;;;;5074254;28;20111;-66
2022/09/04 05:26:30;;;;;;;5.78;5.22;;;;;;;;;;5073956;28;20043;-66
2022/09/04 05:29:02;;;;;;;6.07;5.60;;;;;;;;;;5074498;28;20016;-66
2022/09/04 05:31:32;;;;;;;5.32;4.93;;;;;;;;;;5056621;28;20034;-66
2022/09/04 05:34:08;;;;;;;6.15;5.68;;;;;;;;;;5074174;28;20024;-66
2022/09/04 05:36:41;;;;;;;5.40;4.93;;;;;;;;;;5074050;28;20024;-66
2022/09/04 05:39:12;;;;;;;4.75;4.45;;;;;;;;;;5073744;28;20027;-66
2022/09/04 05:41:37;;;;;;;;;;;;;;;;;;5095623;22;20531;-62
2022/09/04 05:44:22;;;;;;;5.53;5.07;;;;;;;;;;5035871;28;19909;-62
2022/09/04 05:46:50;;;;;;;6.22;5.63;;;;;;;;;;5037358;28;20042;-75
2022/09/04 05:49:25;;;;;;;6.07;5.47;;;;;;;;;;5055933;28;20021;-62
2022/09/04 05:52:02;;;;;;;5.90;5.40;;;;;;;;;;5053946;28;20037;-62
2022/09/04 05:54:36;;;;;;;5.38;4.93;;;;;;;;;;5053853;28;20056;-61
2022/09/04 05:57:19;;;;;;;5.80;5.30;;;;;;;;;;5053545;28;20040;-62
2022/09/04 06:00:05;;;;;;;6.20;5.60;;;;;;;;;;5053984;28;20059;-62
2022/09/04 06:02:37;;;;;;;6.28;5.15;;;;;;;;;;5053472;28;20547;-62
2022/09/04 06:05:22;;;;;;;5.53;5.13;;;;;;;;;;5053713;28;20025;-62
2022/09/04 06:08:07;;;;;;;5.65;5.13;;;;;;;;;;5053679;28;20029;-62
2022/09/04 06:10:35;;;;;;;5.90;5.30;;;;;;;;;;5012670;28;20055;-61
2022/09/04 06:13:18;;;;;;;6.43;5.22;;;;;;;;;;5053957;28;20017;-62
2022/09/04 06:15:43;;;;;;;5.20;4.70;;;;;;;;;;5053884;28;20041;-62
2022/09/04 06:18:34;;;;;;;5.10;4.70;;;;;;;;;;5055126;28;20038;-61
2022/09/04 06:21:16;;;;;;;4.55;4.20;;;;;;;;;;5026554;28;20490;-62
2022/09/04 06:23:47;;;;;;;4.35;4.05;;;;;;;;;;5057690;28;20044;-62
2022/09/04 06:26:16;;;;;;;5.10;4.57;;;;;;;;;;5057330;28;20047;-62
2022/09/04 06:28:47;;;;;;;5.85;4.40;;;;;;;;;;5057322;28;20400;-61
2022/09/04 06:31:18;;;;;;;4.38;4.07;;;;;;;;;;5057283;28;20037;-61
2022/09/04 06:34:03;;;;;;;4.82;4.30;;;;;;;;;;5057495;28;20071;-62
2022/09/04 06:36:28;;;;;;;4.70;4.30;;;;;;;;;;5057139;28;20032;-62
2022/09/04 06:39:12;;;;;;;4.75;4.40;;;;;;;;;;5057416;28;20017;-62
2022/09/04 06:41:50;;;;;;;4.93;4.55;;;;;;;;;;5039290;28;20045;-62
2022/09/04 06:44:20;;;;;;;4.63;4.22;;;;;;;;;;5055746;28;20040;-62
2022/09/04 06:47:03;;;;;;;4.32;3.83;;;;;;;;;;5057311;28;20013;-62
2022/09/04 06:49:47;;;;;;;3.78;3.58;;;;;;;;;;5057227;28;20037;-62
2022/09/04 06:52:21;;;;;;;4.05;3.65;;;;;;;;;;5056938;28;20515;-62
2022/09/04 06:54:52;;;;;;;4.15;3.85;;;;;;;;;;5056827;28;20128;-66
2022/09/04 06:57:30;;;;;;;4.15;3.85;;;;;;;;;;5057066;28;20025;-66
2022/09/04 07:00:04;;;;;;;3.40;3.20;;;;;;;;;;5056953;28;20047;-66
2022/09/04 07:02:36;;;;;;;3.38;3.17;;;;;;;;;;5056993;28;20063;-66
2022/09/04 07:05:08;;;;;;;3.08;2.88;;;;;;;;;;5056666;28;20457;-66
2022/09/04 07:07:40;;;;;;;3.50;3.30;;;;;;;;;;5056921;28;20500;-66
2022/09/04 07:10:16;;;;;;;3.03;2.83;;;;;;;;;;5039356;28;20033;-66
2022/09/04 07:12:49;;;;;;;2.65;2.55;;;;;;;;;;5056549;28;20036;-66
2022/09/04 07:15:20;;;;;;;2.80;2.60;;;;;;;;;;5056715;28;20029;-66
2022/09/04 07:17:55;;;;;;;2.80;2.60;;;;;;;;;;5056688;28;20090;-66
2022/09/04 07:20:36;;;;;;;2.90;2.70;;;;;;;;;;5056272;28;20033;-66
2022/09/04 07:23:08;;;;;;;2.60;2.45;;;;;;;;;;5056640;28;20112;-66
2022/09/04 07:25:37;;;;;;;2.28;2.08;;;;;;;;;;5038391;28;20485;-66
2022/09/04 07:28:10;;;;;;;2.72;2.50;;;;;;;;;;5068096;22;20081;-62
2022/09/04 07:30:41;;;;;;;2.90;2.70;;;;;;;;;;5055532;28;20426;-62
2022/09/04 07:33:11;;;;;;;2.40;2.30;;;;;;;;;;5038399;28;20087;-62
2022/09/04 07:35:43;;;;;;;2.60;2.40;;;;;;;;;;5056118;28;20032;-62
2022/09/04 07:38:27;;;;;;;2.22;2.10;;;;;;;;;;5056333;28;20039;-62
2022/09/04 07:41:01;;;;;;;2.05;1.85;;;;;;;;;;5056204;28;20037;-62
2022/09/04 07:43:29;;;;;;;2.10;1.90;;;;;;;;;;5056228;28;20443;-62
2022/09/04 07:46:13;;;;;;;2.10;2.00;;;;;;;;;;5056449;28;20041;-62
2022/09/04 07:48:42;;;;;;;2.00;1.90;;;;;;;;;;5056114;28;20381;-62
2022/09/04 07:51:31;;;;;;;2.00;1.90;;;;;;;;;;5056095;28;20021;-61
2022/09/04 07:53:59;;;;;;;2.17;2.03;;;;;;;;;;5047619;28;20504;-62
2022/09/04 07:56:34;;;;;;;2.80;2.60;;;;;;;;;;5056293;28;20025;-62
2022/09/04 07:59:09;;;;;;;3.60;3.17;;;;;;;;;;5054385;28;20123;-62
2022/09/04 08:01:37;;;;;;;1.80;1.70;;;;;;;;;;5055894;28;20028;-63
2022/09/04 08:04:21;;;;;;;1.90;1.80;;;;;;;;;;5037745;28;20017;-62
2022/09/04 08:07:09;;;;;;;1.70;1.60;;;;;;;;;;5055513;28;20025;-62
2022/09/04 08:09:53;;;;;;;1.83;1.73;;;;;;;;;;5055506;28;20078;-62
2022/09/04 08:12:24;;;;;;;1.33;1.23;;;;;;;;;;5055913;28;20051;-62
2022/09/04 08:15:02;;;;;;;1.10;1.10;;;;;;;;;;5055632;28;20032;-62
2022/09/04 08:17:32;;;;;;;1.52;1.52;;;;;;;;;;5055556;28;20040;-62
2022/09/04 08:20:01;;;;;;;1.60;1.50;;;;;;;;;;5037895;28;20029;-62
2022/09/04 08:22:46;;;;;;;1.30;1.30;;;;;;;;;;5055178;28;20025;-62
2022/09/04 08:25:21;;;;;;;1.50;1.40;;;;;;;;;;5024677;28;20063;-62
2022/09/04 08:27:55;;;;;;;1.30;1.25;;;;;;;;;;5038503;28;20064;-62
2022/09/04 08:30:20;;;;;;;2.00;1.50;;;;;;;;;;5058538;28;20515;-62
2022/09/04 08:33:04;;;;;;;1.30;1.30;;;;;;;;;;5056730;28;20095;-62
2022/09/04 08:35:33;;;;;;;1.30;1.20;;;;;;;;;;5055250;28;20041;-62
2022/09/04 08:38:08;;;;;;;1.45;1.45;;;;;;;;;;5037417;28;20523;-62
2022/09/04 08:40:52;;;;;;;2.67;1.30;;;;;;;;;;5055024;28;20044;-63
2022/09/04 08:43:21;;;;;;;1.67;1.58;;;;;;;;;;5055066;28;20029;-62
2022/09/04 08:45:52;;;;;;;1.58;1.40;;;;;;;;;;5055293;28;20465;-62
2022/09/04 08:48:31;;;;;;;1.45;1.38;;;;;;;;;;5054753;28;20049;-62
2022/09/04 08:51:02;;;;;;;1.52;1.30;;;;;;;;;;5054909;28;20036;-62
2022/09/04 08:53:44;;;;;;;1.95;1.48;;;;;;;;;;5054906;28;20112;-62
2022/09/04 08:56:17;;;;;;;1.45;1.40;;;;;;;;;;5036854;28;20029;-62
2022/09/04 08:59:01;;;;;;;1.38;1.38;;;;;;;;;;5054830;28;20037;-62
2022/09/04 09:01:45;;;;;;;2.10;1.40;;;;;;;;;;5054677;28;20379;-62
2022/09/04 09:04:17;;;;;;;1.60;1.50;;;;;;;;;;5054674;28;20056;-62
2022/09/04 09:06:53;;;;;;;1.70;1.60;;;;;;;;;;5054682;28;20146;-62
2022/09/04 09:09:25;;;;;;;1.50;1.40;;;;;;;;;;5054289;28;20033;-62
2022/09/04 09:12:15;;;;;;;1.60;1.50;;;;;;;;;;5054849;28;20025;-62
2022/09/04 09:14:41;;;;;;;;;;;;;;;;;;5027360;28;20119;-62
2022/09/04 09:17:12;;;;;;;1.27;1.27;;;;;;;;;;5054722;28;20344;-62
2022/09/04 09:19:38;;;;;;;1.20;1.20;;;;;;;;;;5052823;28;20029;-62
2022/09/04 09:22:09;;;;;;;1.33;1.23;;;;;;;;;;5054112;28;20040;-62
2022/09/04 09:24:34;;;;;;;2.30;2.10;;;;;;;;;;5054581;28;20029;-62
2022/09/04 09:27:20;;;;;;;2.38;2.10;;;;;;;;;;5053854;28;20045;-62
2022/09/04 09:30:06;;;;;;;2.22;2.03;;;;;;;;;;5053510;28;20033;-62
2022/09/04 09:32:33;;;;;;;2.03;1.63;;;;;;;;;;5054449;28;20040;-62
2022/09/04 09:35:07;;;;;;;2.03;1.92;;;;;;;;;;5053853;28;20021;-62
2022/09/04 09:37:48;;;;;;;1.85;1.75;;;;;;;;;;5054085;28;20029;-62
2022/09/04 09:40:22;;;;;;;1.75;1.65;;;;;;;;;;5054283;28;20043;-62
2022/09/04 09:43:08;;;;;;;1.70;1.60;;;;;;;;;;5054008;28;20045;-62
2022/09/04 09:45:46;;;;;;;2.03;1.92;;;;;;;;;;5054244;28;20074;-62
2022/09/04 09:48:30;;;;;;;1.80;1.70;;;;;;;;;;5035915;28;20021;-62
2022/09/04 09:50:59;;;;;;;1.73;1.63;;;;;;;;;;5053929;28;20689;-62
2022/09/04 09:53:43;;;;;;;1.83;1.73;;;;;;;;;;5051901;28;20029;-62
2022/09/04 09:56:14;;;;;;;1.67;1.52;;;;;;;;;;5054104;28;20037;-62
2022/09/04 09:59:00;;;;;;;1.67;1.58;;;;;;;;;;5054121;28;20418;-62
2022/09/04 10:01:44;;;;;;;2.00;1.90;;;;;;;;;;5022777;28;20096;-62
2022/09/04 10:04:28;;;;;;;2.03;1.90;;;;;;;;;;5053993;28;20068;-62
2022/09/04 10:07:18;;;;;;;1.80;1.70;;;;;;;;;;5053737;28;20078;-62
2022/09/04 10:10:04;;;;;;;1.90;1.80;;;;;;;;;;5035661;28;20037;-62
2022/09/04 10:12:35;;;;;;;1.88;1.77;;;;;;;;;;5042624;28;20037;-62
2022/09/04 10:15:20;;;;;;;2.00;1.90;;;;;;;;;;5053974;28;20033;-62
2022/09/04 10:17:45;;;;;;;1.98;1.88;;;;;;;;;;5053674;28;20021;-62
2022/09/04 10:20:20;;;;;;;2.05;1.90;;;;;;;;;;5053257;28;20368;-62
2022/09/04 10:22:48;;;;;;;2.08;1.98;;;;;;;;;;5052039;28;20476;-62
2022/09/04 10:25:34;;;;;;;4.13;2.10;;;;;;;;;;5053575;28;20472;-61
2022/09/04 10:28:14;;;;;;;2.08;1.98;;;;;;;;;;5053173;28;20378;-62
2022/09/04 10:30:58;;;;;;;2.10;1.95;;;;;;;;;;5053809;28;20460;-62
2022/09/04 10:33:33;;;;;;;2.00;1.90;;;;;;;;;;5053509;28;20068;-62
2022/09/04 10:36:13;;;;;;;2.55;2.35;;;;;;;;;;5035742;28;20084;-62
2022/09/04 10:41:56;;;;;;;2.95;2.15;;;;;;;;;;5035303;28;20377;-62
2022/09/04 10:44:28;;;;;;;2.38;2.25;;;;;;;;;;5053694;28;20064;-62
2022/09/04 10:46:54;;;;;;;2.20;2.05;;;;;;;;;;5053096;28;20465;-62
2022/09/04 10:49:38;;;;;;;1.77;1.67;;;;;;;;;;5053324;28;20040;-62
2022/09/04 10:52:12;;;;;;;2.85;2.22;;;;;;;;;;5053625;28;20044;-62
2022/09/04 10:54:43;;;;;;;2.20;2.00;;;;;;;;;;5052967;28;20033;-62
2022/09/04 10:57:12;;;;;;;2.40;2.30;;;;;;;;;;5051728;28;20033;-62
2022/09/04 10:59:51;;;;;;;2.42;2.33;;;;;;;;;;5053120;28;20028;-61
2022/09/04 11:02:24;;;;;;;2.20;2.10;;;;;;;;;;5052923;28;20029;-62
2022/09/04 11:05:07;;;;;;;2.78;2.55;;;;;;;;;;5053779;28;20147;-62
2022/09/04 11:07:39;;;;;;;2.00;1.90;;;;;;;;;;5056669;28;20025;-62
2022/09/04 11:10:23;;;;;;;2.10;2.00;;;;;;;;;;5056854;28;20104;-62
2022/09/04 11:13:08;;;;;;;2.47;2.30;;;;;;;;;;5055243;28;20029;-62
2022/09/04 11:15:56;;;;;;;2.20;2.00;;;;;;;;;;5056745;28;20480;-63
2022/09/04 11:18:22;;;;;;;3.20;1.77;;;;;;;;;;5038551;28;20037;-62
2022/09/04 11:21:06;;;;;;;2.25;2.15;;;;;;;;;;5055059;28;20025;-62
2022/09/04 11:23:37;;;;;;;2.03;1.92;;;;;;;;;;5056600;28;20021;-62
2022/09/04 11:26:27;;;;;;;2.40;2.20;;;;;;;;;;5058270;28;20080;-62
2022/09/04 11:29:03;;;;;;;2.17;2.07;;;;;;;;;;5057691;28;20477;-62
2022/09/04 11:31:47;;;;;;;2.67;2.47;;;;;;;;;;5056380;28;20255;-62
2022/09/04 11:34:32;;;;;;;3.28;2.40;;;;;;;;;;5056699;28;20575;-62
2022/09/04 11:37:00;;;;;;;2.40;2.30;;;;;;;;;;5056667;28;20033;-62
2022/09/04 11:39:48;;;;;;;2.47;2.28;;;;;;;;;;5056239;28;20024;-62
2022/09/04 11:42:15;;;;;;;2.28;2.17;;;;;;;;;;5054750;28;20036;-62
2022/09/04 11:44:47;;;;;;;3.53;2.20;;;;;;;;;;5055945;28;20016;-62
2022/09/04 11:47:12;;;;;;;2.22;2.13;;;;;;;;;;5055888;28;20029;-62
2022/09/04 11:49:40;;;;;;;2.20;2.10;;;;;;;;;;5038327;28;20025;-62
2022/09/04 11:52:33;;;;;;;2.33;2.22;;;;;;;;;;5056047;28;20123;-62
2022/09/04 11:55:16;;;;;;;2.20;2.10;;;;;;;;;;5056011;28;20036;-62
2022/09/04 11:57:51;;;;;;;3.10;1.98;;;;;;;;;;5056221;28;20033;-62
2022/09/04 12:00:18;;;;;;;2.65;2.50;;;;;;;;;;5056146;28;20025;-62
2022/09/04 12:03:02;;;;;;;1.98;1.80;;;;;;;;;;5037671;28;20048;-62
2022/09/04 12:05:42;;;;;;;2.22;2.13;;;;;;;;;;5055546;28;20424;-61
2022/09/04 12:08:16;;;;;;;2.20;2.10;;;;;;;;;;5037630;28;20040;-62
2022/09/04 12:11:01;;;;;;;2.65;2.45;;;;;;;;;;5055743;28;20666;-62
2022/09/04 12:13:45;;;;;;;2.40;2.20;;;;;;;;;;5055985;28;20091;-63
2022/09/04 12:16:14;;;;;;;2.45;2.25;;;;;;;;;;5055785;28;20416;-62
2022/09/04 12:18:57;;;;;;;2.80;2.60;;;;;;;;;;5055589;28;20032;-62
2022/09/04 12:21:26;;;;;;;2.55;2.40;;;;;;;;;;5055513;28;20033;-62
2022/09/04 12:24:00;;;;;;;2.88;2.67;;;;;;;;;;5055520;28;20041;-62
2022/09/04 12:26:32;;;;;;;2.45;2.30;;;;;;;;;;5055246;28;20029;-62
2022/09/04 12:29:10;;;;;;;2.30;2.20;;;;;;;;;;5053813;28;20044;-62
2022/09/04 12:31:54;;;;;;;3.22;2.45;;;;;;;;;;5055354;28;20052;-62
2022/09/04 12:34:38;;;;;;;2.35;2.25;;;;;;;;;;5037774;28;20032;-62
2022/09/04 12:37:04;;;;;;;2.30;2.20;;;;;;;;;;5055224;28;20033;-62
2022/09/04 12:39:49;;;;;;;2.42;2.20;;;;;;;;;;5055387;28;20445;-62
2022/09/04 12:42:20;;;;;;;2.65;2.40;;;;;;;;;;5055110;28;20032;-62
2022/09/04 12:44:48;;;;;;;2.00;1.90;;;;;;;;;;5054819;28;20461;-62
2022/09/04 12:47:32;;;;;;;2.20;2.10;;;;;;;;;;5055294;28;20071;-62
2022/09/04 12:50:09;;;;;;;2.35;2.20;;;;;;;;;;5054969;28;20036;-62
2022/09/04 12:52:37;;;;;;;2.88;2.00;;;;;;;;;;5054646;28;20393;-61
2022/09/04 12:55:08;;;;;;;2.22;2.13;;;;;;;;;;5054890;28;20064;-62
2022/09/04 12:57:45;;;;;;;3.13;2.15;;;;;;;;;;5054565;28;20057;-62
2022/09/04 13:00:16;;;;;;;2.53;2.33;;;;;;;;;;5053152;28;20033;-62
2022/09/04 13:03:00;;;;;;;2.40;2.30;;;;;;;;;;5036980;28;20067;-62
2022/09/04 13:05:32;;;;;;;2.25;2.15;;;;;;;;;;5053169;28;20025;-62
2022/09/04 13:08:03;;;;;;;2.75;2.55;;;;;;;;;;5054920;28;20032;-61
2022/09/04 13:10:37;;;;;;;2.60;2.40;;;;;;;;;;5036845;28;20112;-62
2022/09/04 13:13:21;;;;;;;2.97;2.25;;;;;;;;;;5054555;28;20384;-62
2022/09/04 13:15:52;;;;;;;3.08;2.40;;;;;;;;;;5054462;28;20071;-62
2022/09/04 13:18:20;;;;;;;2.30;2.20;;;;;;;;;;5054424;28;20528;-62
2022/09/04 13:20:55;;;;;;;2.20;2.10;;;;;;;;;;5054325;28;20021;-62
2022/09/04 13:23:22;;;;;;;2.28;2.15;;;;;;;;;;5036614;28;20037;-62
2022/09/04 13:25:51;;;;;;;2.08;1.98;;;;;;;;;;5036155;28;20023;-62
2022/09/04 13:28:36;;;;;;;2.08;1.98;;;;;;;;;;5035264;28;20040;-62
2022/09/04 13:31:02;;;;;;;2.10;1.90;;;;;;;;;;5054504;28;20504;-62
2022/09/04 13:33:38;;;;;;;2.20;2.10;;;;;;;;;;5053921;28;20044;-63
2022/09/04 13:36:17;;;;;;;1.98;1.88;;;;;;;;;;5054154;28;20081;-62
2022/09/04 13:39:00;;;;;;;1.83;1.55;;;;;;;;;;5054111;28;20025;-62
2022/09/04 13:41:38;;;;;;;2.05;1.85;;;;;;;;;;5052011;28;20135;-62
2022/09/04 13:44:22;;;;;;;2.65;2.20;;;;;;;;;;5036315;28;20028;-61
2022/09/04 13:47:03;;;;;;;2.45;2.25;;;;;;;;;;5052439;28;20039;-62
2022/09/04 13:49:31;;;;;;;2.15;2.05;;;;;;;;;;5053975;28;20025;-62
2022/09/04 13:52:02;;;;;;;2.63;2.53;;;;;;;;;;5054182;28;20021;-62
2022/09/04 13:54:41;;;;;;;2.72;2.50;;;;;;;;;;5053912;28;20025;-62
2022/09/04 13:57:12;;;;;;;2.60;2.40;;;;;;;;;;5053846;28;20074;-61
2022/09/04 13:59:39;;;;;;;2.78;2.58;;;;;;;;;;5053761;28;20044;-63
2022/09/04 14:02:07;;;;;;;3.00;2.70;;;;;;;;;;5053594;28;20083;-62
2022/09/04 14:04:49;;;;;;;2.65;2.53;;;;;;;;;;5053839;28;20025;-62
2022/09/04 14:07:19;;;;;;;3.20;2.50;;;;;;;;;;5053779;28;20029;-62
2022/09/04 14:09:46;;;;;;;2.70;2.50;;;;;;;;;;5053480;28;20063;-62
2022/09/04 14:12:18;;;;;;;2.88;2.67;;;;;;;;;;5053713;28;20449;-62
2022/09/04 14:14:44;;;;;;;3.08;2.88;;;;;;;;;;5036005;28;20044;-62
2022/09/04 14:17:10;;;;;;;2.58;2.47;;;;;;;;;;5053939;28;20029;-62
2022/09/04 14:19:42;;;;;;;2.80;2.60;;;;;;;;;;5053599;28;20036;-62
2022/09/04 14:22:26;;;;;;;2.83;2.63;;;;;;;;;;5055525;28;20033;-62
2022/09/04 14:24:57;;;;;;;2.70;2.60;;;;;;;;;;5055011;28;20465;-62
2022/09/04 14:27:34;;;;;;;4.20;2.70;;;;;;;;;;5053470;28;20037;-61
2022/09/04 14:30:06;;;;;;;3.00;2.78;;;;;;;;;;5053844;28;20358;-63
2022/09/04 14:32:41;;;;;;;2.95;2.75;;;;;;;;;;5053473;28;20032;-62
2022/09/04 14:35:38;;;;;;;3.65;3.08;;;;;;;;;;5053211;28;20037;-61
2022/09/04 14:38:03;;;;;;;3.10;2.90;;;;;;;;;;5040224;28;20048;-62
2022/09/04 14:40:30;;;;;;;2.67;2.55;;;;;;;;;;5056761;28;20021;-62
2022/09/04 14:43:15;;;;;;;3.20;2.80;;;;;;;;;;5057418;28;20037;-62
2022/09/04 14:46:01;;;;;;;3.72;3.08;;;;;;;;;;5057041;28;20024;-62
2022/09/04 14:48:27;;;;;;;3.17;2.88;;;;;;;;;;5057298;28;20037;-61
2022/09/04 14:50:55;;;;;;;3.67;3.28;;;;;;;;;;5057240;28;20051;-62
2022/09/04 14:53:30;;;;;;;3.63;3.13;;;;;;;;;;5055691;28;20040;-62
2022/09/04 14:56:10;;;;;;;2.97;2.78;;;;;;;;;;5057149;28;20025;-62
2022/09/04 14:58:38;;;;;;;3.63;3.33;;;;;;;;;;5057160;28;20108;-62
2022/09/04 15:01:10;;;;;;;3.90;3.10;;;;;;;;;;5038860;28;20095;-62
2022/09/04 15:03:46;;;;;;;2.85;2.72;;;;;;;;;;5057032;28;20040;-62
2022/09/04 15:06:15;;;;;;;3.20;2.90;;;;;;;;;;5057019;28;20037;-62
2022/09/04 15:08:43;;;;;;;4.65;3.10;;;;;;;;;;5022278;28;20024;-62
2022/09/04 15:11:11;;;;;;;4.65;2.88;;;;;;;;;;5057143;28;20088;-62
2022/09/04 15:13:49;;;;;;;2.92;2.80;;;;;;;;;;5056549;28;20047;-62
2022/09/04 15:16:18;;;;;;;3.33;3.03;;;;;;;;;;5056498;28;20392;-62
2022/09/04 15:18:54;;;;;;;3.40;3.10;;;;;;;;;;5038966;28;20031;-62
2022/09/04 15:21:28;;;;;;;3.38;3.13;;;;;;;;;;5056610;28;20029;-62
2022/09/04 15:23:59;;;;;;;3.25;2.97;;;;;;;;;;5056858;28;20063;-62
2022/09/04 15:26:36;;;;;;;3.40;2.78;;;;;;;;;;5068814;23;20508;-62
2022/09/04 15:29:13;;;;;;;3.92;3.33;;;;;;;;;;5056538;28;20025;-61
2022/09/04 15:31:40;;;;;;;3.75;3.40;;;;;;;;;;5056507;28;20126;-62
2022/09/04 15:34:07;;;;;;;3.10;2.90;;;;;;;;;;5056123;28;20057;-62
2022/09/04 15:36:34;;;;;;;3.63;3.33;;;;;;;;;;5056691;28;20428;-62
2022/09/04 15:39:01;;;;;;;3.85;3.55;;;;;;;;;;5056065;28;20021;-62